sensor_id;sensor_type;location;lat;lon;timestamp;pressure;altitude;pressure_sealevel;temperature;humidity
43824;BME280;29470;53.550;9.926;2022-08-19T00:00:17;100835.97;;;20.10;90.98
43824;BME280;29470;53.550;9.926;2022-08-19T00:05:21;100832.03;;;19.97;92.24
43824;BME280;29470;53.550;9.926;2022-08-19T00:10:26;100822.78;;;20.08;91.82
43824;BME280;29470;53.550;9.926;2022-08-19T00:15:29;100819.00;;;20.00;92.38
43824;BME280;29470;53.550;9.926;2022-08-19T00:20:32;100819.13;;;20.03;91.89
43824;BME280;29470;53.550;9.926;2022-08-19T00:25:36;100825.94;;;20.25;90.64
43824;BME280;29470;53.550;9.926;2022-08-19T00:30:40;100833.94;;;20.30;90.96
43824;BME280;29470;53.550;9.926;2022-08-19T00:35:43;100830.00;;;20.15;91.84
43824;BME280;29470;53.550;9.926;2022-08-19T00:40:58;100823.41;;;20.28;91.91
43824;BME280;29470;53.550;9.926;2022-08-19T00:46:00;100814.53;;;20.25;91.34
43824;BME280;29470;53.550;9.926;2022-08-19T00:51:05;100807.59;;;20.27;91.47
43824;BME280;29470;53.550;9.926;2022-08-19T00:56:10;100804.84;;;20.22;92.07
43824;BME280;29470;53.550;9.926;2022-08-19T01:01:12;100796.22;;;19.99;93.32
43824;BME280;29470;53.550;9.926;2022-08-19T01:06:16;100803.81;;;20.17;92.73
43824;BME280;29470;53.550;9.926;2022-08-19T01:11:22;100803.75;;;20.15;92.28
43824;BME280;29470;53.550;9.926;2022-08-19T01:16:27;100801.75;;;20.07;93.46
43824;BME280;29470;53.550;9.926;2022-08-19T01:21:32;100794.84;;;20.10;92.05
43824;BME280;29470;53.550;9.926;2022-08-19T01:26:41;100803.84;;;20.19;91.92
43824;BME280;29470;53.550;9.926;2022-08-19T01:31:45;100798.69;;;20.22;91.51
43824;BME280;29470;53.550;9.926;2022-08-19T01:36:48;100791.81;;;19.98;92.87
43824;BME280;29470;53.550;9.926;2022-08-19T01:41:52;100785.38;;;19.88;94.65
43824;BME280;29470;53.550;9.926;2022-08-19T01:46:56;100785.31;;;19.86;94.58
43824;BME280;29470;53.550;9.926;2022-08-19T01:52:00;100776.25;;;20.04;93.71
43824;BME280;29470;53.550;9.926;2022-08-19T01:57:09;100764.88;;;20.04;94.84
43824;BME280;29470;53.550;9.926;2022-08-19T02:02:13;100771.47;;;19.91;96.04
43824;BME280;29470;53.550;9.926;2022-08-19T02:07:19;100775.13;;;19.96;96.88
43824;BME280;29470;53.550;9.926;2022-08-19T02:12:24;100772.09;;;19.83;98.27
43824;BME280;29470;53.550;9.926;2022-08-19T02:17:27;100763.47;;;19.87;98.62
43824;BME280;29470;53.550;9.926;2022-08-19T02:22:30;100742.59;;;19.91;99.37
43824;BME280;29470;53.550;9.926;2022-08-19T02:27:34;100736.91;;;19.77;99.23
43824;BME280;29470;53.550;9.926;2022-08-19T02:32:37;100735.59;;;19.64;100.00
43824;BME280;29470;53.550;9.926;2022-08-19T02:37:45;100742.78;;;19.69;100.00
43824;BME280;29470;53.550;9.926;2022-08-19T02:43:08;100753.78;;;19.85;100.00
43824;BME280;29470;53.550;9.926;2022-08-19T02:48:11;100756.16;;;19.77;100.00
43824;BME280;29470;53.550;9.926;2022-08-19T02:53:24;100751.31;;;19.90;100.00
43824;BME280;29470;53.550;9.926;2022-08-19T02:58:29;100751.09;;;19.83;100.00
43824;BME280;29470;53.550;9.926;2022-08-19T03:03:32;100748.06;;;19.71;100.00
43824;BME280;29470;53.550;9.926;2022-08-19T03:08:36;100759.66;;;19.50;100.00
43824;BME280;29470;53.550;9.926;2022-08-19T03:13:40;100767.31;;;19.44;100.00
43824;BME280;29470;53.550;9.926;2022-08-19T03:18:44;100761.63;;;19.57;100.00
43824;BME280;29470;53.550;9.926;2022-08-19T03:23:47;100751.84;;;19.52;100.00
43824;BME280;29470;53.550;9.926;2022-08-19T03:28:52;100759.91;;;19.58;100.00
43824;BME280;29470;53.550;9.926;2022-08-19T03:33:59;100764.06;;;19.51;100.00
43824;BME280;29470;53.550;9.926;2022-08-19T03:39:04;100761.53;;;19.54;100.00
43824;BME280;29470;53.550;9.926;2022-08-19T03:44:08;100765.47;;;19.40;100.00
43824;BME280;29470;53.550;9.926;2022-08-19T03:49:18;100774.00;;;19.34;100.00
43824;BME280;29470;53.550;9.926;2022-08-19T03:54:28;100771.56;;;19.39;100.00
43824;BME280;29470;53.550;9.926;2022-08-19T03:59:35;100775.69;;;19.32;100.00
43824;BME280;29470;53.550;9.926;2022-08-19T04:04:40;100774.28;;;19.42;100.00
43824;BME280;29470;53.550;9.926;2022-08-19T04:09:44;100780.63;;;19.50;100.00
43824;BME280;29470;53.550;9.926;2022-08-19T04:14:48;100785.16;;;19.54;100.00
43824;BME280;29470;53.550;9.926;2022-08-19T04:19:51;100793.00;;;19.54;100.00
43824;BME280;29470;53.550;9.926;2022-08-19T04:24:54;100800.53;;;19.43;100.00
43824;BME280;29470;53.550;9.926;2022-08-19T04:29:58;100810.56;;;19.30;100.00
43824;BME280;29470;53.550;9.926;2022-08-19T04:35:01;100814.53;;;19.18;100.00
43824;BME280;29470;53.550;9.926;2022-08-19T04:40:19;100816.78;;;19.33;100.00
43824;BME280;29470;53.550;9.926;2022-08-19T04:45:41;100823.09;;;19.38;100.00
43824;BME280;29470;53.550;9.926;2022-08-19T04:50:45;100826.41;;;19.33;100.00
43824;BME280;29470;53.550;9.926;2022-08-19T04:55:48;100831.03;;;19.16;100.00
43824;BME280;29470;53.550;9.926;2022-08-19T05:00:52;100826.31;;;19.30;100.00
43824;BME280;29470;53.550;9.926;2022-08-19T05:05:55;100826.59;;;19.13;100.00
43824;BME280;29470;53.550;9.926;2022-08-19T05:10:58;100838.88;;;19.14;100.00
43824;BME280;29470;53.550;9.926;2022-08-19T05:16:03;100836.50;;;19.22;100.00
43824;BME280;29470;53.550;9.926;2022-08-19T05:21:07;100824.41;;;19.25;100.00
43824;BME280;29470;53.550;9.926;2022-08-19T05:26:27;100835.16;;;19.33;100.00
43824;BME280;29470;53.550;9.926;2022-08-19T05:31:32;100844.38;;;19.22;100.00
43824;BME280;29470;53.550;9.926;2022-08-19T05:36:38;100845.31;;;19.24;100.00
43824;BME280;29470;53.550;9.926;2022-08-19T05:41:42;100848.00;;;19.01;100.00
43824;BME280;29470;53.550;9.926;2022-08-19T05:46:47;100851.25;;;19.18;100.00
43824;BME280;29470;53.550;9.926;2022-08-19T05:51:50;100847.59;;;19.14;100.00
43824;BME280;29470;53.550;9.926;2022-08-19T05:56:54;100843.66;;;19.02;100.00
43824;BME280;29470;53.550;9.926;2022-08-19T06:01:58;100839.41;;;19.05;100.00
43824;BME280;29470;53.550;9.926;2022-08-19T06:07:02;100837.34;;;19.21;100.00
43824;BME280;29470;53.550;9.926;2022-08-19T06:12:13;100839.31;;;19.26;100.00
43824;BME280;29470;53.550;9.926;2022-08-19T06:17:21;100846.34;;;19.27;100.00
43824;BME280;29470;53.550;9.926;2022-08-19T06:22:27;100842.03;;;19.30;100.00
43824;BME280;29470;53.550;9.926;2022-08-19T06:27:30;100846.00;;;19.44;100.00
43824;BME280;29470;53.550;9.926;2022-08-19T06:32:36;100847.53;;;19.63;100.00
43824;BME280;29470;53.550;9.926;2022-08-19T06:37:43;100843.69;;;19.53;100.00
43824;BME280;29470;53.550;9.926;2022-08-19T06:42:46;100843.94;;;19.34;100.00
43824;BME280;29470;53.550;9.926;2022-08-19T06:47:57;100841.03;;;19.52;100.00
43824;BME280;29470;53.550;9.926;2022-08-19T06:52:59;100836.38;;;19.43;100.00
43824;BME280;29470;53.550;9.926;2022-08-19T06:58:05;100836.00;;;19.58;100.00
43824;BME280;29470;53.550;9.926;2022-08-19T07:03:09;100844.53;;;19.52;100.00
43824;BME280;29470;53.550;9.926;2022-08-19T07:08:14;100846.91;;;19.70;98.97
43824;BME280;29470;53.550;9.926;2022-08-19T07:13:19;100841.22;;;19.84;97.35
43824;BME280;29470;53.550;9.926;2022-08-19T07:18:24;100847.59;;;19.91;95.62
43824;BME280;29470;53.550;9.926;2022-08-19T07:23:27;100843.78;;;20.08;95.57
43824;BME280;29470;53.550;9.926;2022-08-19T07:28:30;100844.59;;;20.35;92.92
43824;BME280;29470;53.550;9.926;2022-08-19T07:33:36;100866.53;;;20.37;92.21
43824;BME280;29470;53.550;9.926;2022-08-19T07:38:41;100873.25;;;20.56;91.24
43824;BME280;29470;53.550;9.926;2022-08-19T07:43:46;100869.41;;;20.44;91.08
43824;BME280;29470;53.550;9.926;2022-08-19T07:48:51;100874.78;;;20.49;91.17
43824;BME280;29470;53.550;9.926;2022-08-19T07:53:54;100884.72;;;20.58;90.28
43824;BME280;29470;53.550;9.926;2022-08-19T07:58:57;100886.69;;;20.94;88.26
43824;BME280;29470;53.550;9.926;2022-08-19T08:04:02;100896.63;;;20.75;88.10
43824;BME280;29470;53.550;9.926;2022-08-19T08:09:29;100901.81;;;20.45;90.57
43824;BME280;29470;53.550;9.926;2022-08-19T08:14:37;100904.69;;;20.53;90.18
43824;BME280;29470;53.550;9.926;2022-08-19T08:19:47;100918.28;;;20.39;91.71
43824;BME280;29470;53.550;9.926;2022-08-19T08:24:52;100913.72;;;20.34;91.00
43824;BME280;29470;53.550;9.926;2022-08-19T08:29:55;100909.97;;;20.25;92.60
43824;BME280;29470;53.550;9.926;2022-08-19T08:35:00;100919.81;;;20.60;90.69
43824;BME280;29470;53.550;9.926;2022-08-19T08:40:05;100918.97;;;20.61;90.00
43824;BME280;29470;53.550;9.926;2022-08-19T08:45:16;100921.84;;;20.98;89.22
43824;BME280;29470;53.550;9.926;2022-08-19T08:50:27;100920.84;;;21.57;86.34
43824;BME280;29470;53.550;9.926;2022-08-19T08:55:32;100924.63;;;21.34;87.01
43824;BME280;29470;53.550;9.926;2022-08-19T09:00:43;100925.72;;;21.11;87.06
43824;BME280;29470;53.550;9.926;2022-08-19T09:05:57;100923.03;;;21.09;86.95
43824;BME280;29470;53.550;9.926;2022-08-19T09:11:04;100925.72;;;21.73;84.85
43824;BME280;29470;53.550;9.926;2022-08-19T09:16:15;100917.16;;;22.17;80.78
43824;BME280;29470;53.550;9.926;2022-08-19T09:21:24;100921.13;;;22.73;78.94
43824;BME280;29470;53.550;9.926;2022-08-19T09:26:34;100923.50;;;22.62;78.23
43824;BME280;29470;53.550;9.926;2022-08-19T09:31:53;100924.75;;;22.05;80.87
43824;BME280;29470;53.550;9.926;2022-08-19T09:36:57;100923.16;;;22.12;80.32
43824;BME280;29470;53.550;9.926;2022-08-19T09:42:01;100922.56;;;22.24;81.08
43824;BME280;29470;53.550;9.926;2022-08-19T09:47:06;100920.34;;;22.04;81.92
43824;BME280;29470;53.550;9.926;2022-08-19T09:52:11;100922.41;;;21.81;83.55
43824;BME280;29470;53.550;9.926;2022-08-19T09:57:14;100925.28;;;21.90;82.75
43824;BME280;29470;53.550;9.926;2022-08-19T10:02:19;100927.44;;;22.06;82.24
43824;BME280;29470;53.550;9.926;2022-08-19T10:07:24;100920.63;;;21.81;84.24
43824;BME280;29470;53.550;9.926;2022-08-19T10:12:37;100933.03;;;21.53;86.62
43824;BME280;29470;53.550;9.926;2022-08-19T10:17:40;100934.72;;;21.82;84.88
43824;BME280;29470;53.550;9.926;2022-08-19T10:22:57;100932.88;;;22.14;84.37
43824;BME280;29470;53.550;9.926;2022-08-19T10:28:00;100933.13;;;22.25;83.73
43824;BME280;29470;53.550;9.926;2022-08-19T10:33:03;100930.34;;;22.19;83.94
43824;BME280;29470;53.550;9.926;2022-08-19T10:38:12;100933.09;;;21.87;85.42
43824;BME280;29470;53.550;9.926;2022-08-19T10:43:15;100936.16;;;21.70;87.05
43824;BME280;29470;53.550;9.926;2022-08-19T10:48:18;100927.84;;;21.88;85.79
43824;BME280;29470;53.550;9.926;2022-08-19T10:53:23;100925.22;;;21.88;86.36
43824;BME280;29470;53.550;9.926;2022-08-19T10:58:27;100928.84;;;21.92;85.66
43824;BME280;29470;53.550;9.926;2022-08-19T11:03:30;100917.16;;;21.82;86.19
43824;BME280;29470;53.550;9.926;2022-08-19T11:08:35;100915.91;;;22.03;85.59
43824;BME280;29470;53.550;9.926;2022-08-19T11:13:40;100910.41;;;21.92;85.75
43824;BME280;29470;53.550;9.926;2022-08-19T11:18:46;100912.72;;;22.51;82.75
43824;BME280;29470;53.550;9.926;2022-08-19T11:23:53;100914.47;;;23.83;76.84
43824;BME280;29470;53.550;9.926;2022-08-19T11:28:56;100922.56;;;23.94;75.96
43824;BME280;29470;53.550;9.926;2022-08-19T11:34:02;100918.53;;;24.15;73.93
43824;BME280;29470;53.550;9.926;2022-08-19T11:39:12;100907.38;;;24.33;74.09
43824;BME280;29470;53.550;9.926;2022-08-19T11:44:15;100911.84;;;24.98;69.45
43824;BME280;29470;53.550;9.926;2022-08-19T11:49:19;100901.78;;;24.12;73.65
43824;BME280;29470;53.550;9.926;2022-08-19T11:54:25;100899.91;;;23.56;74.16
43824;BME280;29470;53.550;9.926;2022-08-19T11:59:28;100912.75;;;23.37;75.98
43824;BME280;29470;53.550;9.926;2022-08-19T12:04:30;100911.91;;;22.95;79.23
43824;BME280;29470;53.550;9.926;2022-08-19T12:09:35;100903.47;;;23.12;79.04
43824;BME280;29470;53.550;9.926;2022-08-19T12:14:43;100913.97;;;23.55;77.07
43824;BME280;29470;53.550;9.926;2022-08-19T12:19:47;100903.84;;;23.78;74.79
43824;BME280;29470;53.550;9.926;2022-08-19T12:24:52;100902.88;;;24.87;70.75
43824;BME280;29470;53.550;9.926;2022-08-19T12:29:56;100902.31;;;25.14;68.48
43824;BME280;29470;53.550;9.926;2022-08-19T12:34:59;100905.34;;;25.46;67.38
43824;BME280;29470;53.550;9.926;2022-08-19T12:40:05;100887.00;;;24.89;70.92
43824;BME280;29470;53.550;9.926;2022-08-19T12:45:09;100882.34;;;24.69;69.99
43824;BME280;29470;53.550;9.926;2022-08-19T12:50:12;100877.38;;;24.94;69.15
43824;BME280;29470;53.550;9.926;2022-08-19T12:55:17;100882.59;;;25.66;65.85
43824;BME280;29470;53.550;9.926;2022-08-19T13:00:21;100877.41;;;25.80;65.64
43824;BME280;29470;53.550;9.926;2022-08-19T13:05:27;100883.28;;;25.47;66.91
43824;BME280;29470;53.550;9.926;2022-08-19T13:10:34;100891.34;;;24.83;70.06
43824;BME280;29470;53.550;9.926;2022-08-19T13:15:41;100880.34;;;24.52;71.05
43824;BME280;29470;53.550;9.926;2022-08-19T13:20:46;100877.72;;;25.25;68.12
43824;BME280;29470;53.550;9.926;2022-08-19T13:25:58;100870.47;;;25.07;68.66
43824;BME280;29470;53.550;9.926;2022-08-19T13:31:02;100877.25;;;25.65;66.84
43824;BME280;29470;53.550;9.926;2022-08-19T13:36:22;100872.63;;;25.42;66.32
43824;BME280;29470;53.550;9.926;2022-08-19T13:41:27;100860.50;;;25.66;66.89
43824;BME280;29470;53.550;9.926;2022-08-19T13:46:30;100860.91;;;25.20;67.80
43824;BME280;29470;53.550;9.926;2022-08-19T13:51:33;100847.00;;;25.39;67.85
43824;BME280;29470;53.550;9.926;2022-08-19T13:56:41;100870.59;;;25.16;66.83
43824;BME280;29470;53.550;9.926;2022-08-19T14:01:45;100863.88;;;25.46;66.08
43824;BME280;29470;53.550;9.926;2022-08-19T14:06:47;100866.44;;;25.41;67.22
43824;BME280;29470;53.550;9.926;2022-08-19T14:11:52;100863.13;;;25.61;66.16
43824;BME280;29470;53.550;9.926;2022-08-19T14:16:54;100869.69;;;25.14;67.11
43824;BME280;29470;53.550;9.926;2022-08-19T14:21:57;100860.81;;;25.10;66.98
43824;BME280;29470;53.550;9.926;2022-08-19T14:27:02;100853.31;;;25.51;66.40
43824;BME280;29470;53.550;9.926;2022-08-19T14:32:05;100843.97;;;25.98;63.09
43824;BME280;29470;53.550;9.926;2022-08-19T14:37:12;100850.88;;;25.77;64.46
43824;BME280;29470;53.550;9.926;2022-08-19T14:42:17;100850.75;;;25.60;65.18
43824;BME280;29470;53.550;9.926;2022-08-19T14:47:20;100851.34;;;25.34;66.48
43824;BME280;29470;53.550;9.926;2022-08-19T14:52:23;100856.97;;;25.61;64.61
43824;BME280;29470;53.550;9.926;2022-08-19T14:57:27;100861.88;;;25.26;64.64
43824;BME280;29470;53.550;9.926;2022-08-19T15:02:30;100876.91;;;25.32;64.78
43824;BME280;29470;53.550;9.926;2022-08-19T15:07:36;100874.16;;;25.20;64.37
43824;BME280;29470;53.550;9.926;2022-08-19T15:12:41;100883.34;;;25.53;64.15
43824;BME280;29470;53.550;9.926;2022-08-19T15:17:45;100879.94;;;25.66;65.36
43824;BME280;29470;53.550;9.926;2022-08-19T15:22:49;100875.81;;;26.04;62.19
43824;BME280;29470;53.550;9.926;2022-08-19T15:27:53;100878.16;;;25.65;63.93
43824;BME280;29470;53.550;9.926;2022-08-19T15:32:57;100885.94;;;25.45;64.07
43824;BME280;29470;53.550;9.926;2022-08-19T15:38:00;100888.09;;;25.05;65.03
43824;BME280;29470;53.550;9.926;2022-08-19T15:43:04;100889.25;;;25.30;64.10
43824;BME280;29470;53.550;9.926;2022-08-19T15:48:08;100888.44;;;25.37;63.43
43824;BME280;29470;53.550;9.926;2022-08-19T15:53:11;100888.59;;;25.50;62.23
43824;BME280;29470;53.550;9.926;2022-08-19T15:58:15;100897.81;;;25.06;62.93
43824;BME280;29470;53.550;9.926;2022-08-19T16:03:35;100901.38;;;25.08;62.94
43824;BME280;29470;53.550;9.926;2022-08-19T16:08:57;100894.66;;;25.39;61.86
43824;BME280;29470;53.550;9.926;2022-08-19T16:14:04;100883.91;;;25.22;62.78
43824;BME280;29470;53.550;9.926;2022-08-19T16:19:09;100895.09;;;25.01;63.19
43824;BME280;29470;53.550;9.926;2022-08-19T16:24:17;100888.91;;;24.97;63.73
43824;BME280;29470;53.550;9.926;2022-08-19T16:29:23;100888.91;;;24.99;63.19
43824;BME280;29470;53.550;9.926;2022-08-19T16:34:41;100878.63;;;25.27;62.25
43824;BME280;29470;53.550;9.926;2022-08-19T16:39:44;100878.44;;;25.08;62.82
43824;BME280;29470;53.550;9.926;2022-08-19T16:44:48;100869.41;;;24.91;63.46
43824;BME280;29470;53.550;9.926;2022-08-19T16:49:51;100882.22;;;24.60;65.91
43824;BME280;29470;53.550;9.926;2022-08-19T16:54:56;100879.31;;;24.41;65.80
43824;BME280;29470;53.550;9.926;2022-08-19T17:00:00;100872.84;;;24.20;66.42
43824;BME280;29470;53.550;9.926;2022-08-19T17:05:07;100869.88;;;24.00;66.40
43824;BME280;29470;53.550;9.926;2022-08-19T17:10:10;100874.19;;;23.96;66.92
43824;BME280;29470;53.550;9.926;2022-08-19T17:15:15;100885.56;;;23.92;67.23
43824;BME280;29470;53.550;9.926;2022-08-19T17:20:18;100881.72;;;23.72;67.22
43824;BME280;29470;53.550;9.926;2022-08-19T17:25:21;100876.94;;;23.50;68.65
43824;BME280;29470;53.550;9.926;2022-08-19T17:30:26;100883.03;;;23.48;68.73
43824;BME280;29470;53.550;9.926;2022-08-19T17:35:29;100887.13;;;23.30;69.79
43824;BME280;29470;53.550;9.926;2022-08-19T17:40:34;100891.41;;;23.23;69.08
43824;BME280;29470;53.550;9.926;2022-08-19T17:45:47;100882.44;;;23.17;68.96
43824;BME280;29470;53.550;9.926;2022-08-19T17:50:50;100888.59;;;23.17;70.38
43824;BME280;29470;53.550;9.926;2022-08-19T17:55:55;100887.56;;;23.09;72.19
43824;BME280;29470;53.550;9.926;2022-08-19T18:00:59;100889.81;;;22.89;74.12
43824;BME280;29470;53.550;9.926;2022-08-19T18:06:03;100881.84;;;22.86;75.14
43824;BME280;29470;53.550;9.926;2022-08-19T18:11:07;100881.38;;;22.65;75.42
43824;BME280;29470;53.550;9.926;2022-08-19T18:16:12;100879.34;;;22.52;76.23
43824;BME280;29470;53.550;9.926;2022-08-19T18:21:15;100871.91;;;22.35;76.60
43824;BME280;29470;53.550;9.926;2022-08-19T18:26:18;100873.53;;;22.30;76.35
43824;BME280;29470;53.550;9.926;2022-08-19T18:31:23;100871.44;;;22.15;76.39
43824;BME280;29470;53.550;9.926;2022-08-19T18:36:28;100879.28;;;22.14;76.56
43824;BME280;29470;53.550;9.926;2022-08-19T18:41:51;100871.91;;;21.97;77.07
43824;BME280;29470;53.550;9.926;2022-08-19T18:47:12;100881.13;;;21.80;77.88
43824;BME280;29470;53.550;9.926;2022-08-19T18:52:47;100868.50;;;21.66;78.45
43824;BME280;29470;53.550;9.926;2022-08-19T18:57:50;100868.44;;;21.65;78.81
43824;BME280;29470;53.550;9.926;2022-08-19T19:02:56;100871.56;;;21.51;79.63
43824;BME280;29470;53.550;9.926;2022-08-19T19:07:59;100856.22;;;21.34;80.66
43824;BME280;29470;53.550;9.926;2022-08-19T19:13:02;100870.78;;;21.20;81.69
43824;BME280;29470;53.550;9.926;2022-08-19T19:18:07;100878.44;;;21.12;81.95
43824;BME280;29470;53.550;9.926;2022-08-19T19:23:10;100885.88;;;20.97;82.62
43824;BME280;29470;53.550;9.926;2022-08-19T19:28:13;100892.81;;;20.95;83.52
43824;BME280;29470;53.550;9.926;2022-08-19T19:33:18;100888.22;;;20.86;83.88
43824;BME280;29470;53.550;9.926;2022-08-19T19:38:21;100899.47;;;20.82;84.64
43824;BME280;29470;53.550;9.926;2022-08-19T19:43:24;100904.00;;;20.87;83.27
43824;BME280;29470;53.550;9.926;2022-08-19T19:48:39;100911.69;;;20.80;84.85
43824;BME280;29470;53.550;9.926;2022-08-19T19:53:42;100899.94;;;20.70;85.88
43824;BME280;29470;53.550;9.926;2022-08-19T19:58:45;100901.41;;;20.60;86.34
43824;BME280;29470;53.550;9.926;2022-08-19T20:03:52;100901.88;;;20.46;87.17
43824;BME280;29470;53.550;9.926;2022-08-19T20:08:55;100907.78;;;20.39;87.29
43824;BME280;29470;53.550;9.926;2022-08-19T20:14:14;100913.59;;;20.29;87.97
43824;BME280;29470;53.550;9.926;2022-08-19T20:19:22;100926.59;;;20.24;89.26
43824;BME280;29470;53.550;9.926;2022-08-19T20:24:36;100938.69;;;20.21;89.90
43824;BME280;29470;53.550;9.926;2022-08-19T20:29:46;100954.34;;;20.17;90.04
43824;BME280;29470;53.550;9.926;2022-08-19T20:34:56;100965.69;;;20.16;90.30
43824;BME280;29470;53.550;9.926;2022-08-19T20:39:59;100960.22;;;20.09;90.71
43824;BME280;29470;53.550;9.926;2022-08-19T20:45:03;100961.09;;;20.09;90.70
43824;BME280;29470;53.550;9.926;2022-08-19T20:50:31;100956.44;;;20.00;91.24
43824;BME280;29470;53.550;9.926;2022-08-19T20:55:35;100948.25;;;19.91;91.07
43824;BME280;29470;53.550;9.926;2022-08-19T21:00:39;100952.66;;;19.92;91.26
43824;BME280;29470;53.550;9.926;2022-08-19T21:05:46;100942.16;;;19.92;91.73
43824;BME280;29470;53.550;9.926;2022-08-19T21:10:50;100936.06;;;19.93;91.73
43824;BME280;29470;53.550;9.926;2022-08-19T21:15:54;100940.38;;;19.91;91.84
43824;BME280;29470;53.550;9.926;2022-08-19T21:20:58;100946.34;;;19.88;92.29
43824;BME280;29470;53.550;9.926;2022-08-19T21:26:01;100948.75;;;19.82;92.64
43824;BME280;29470;53.550;9.926;2022-08-19T21:31:05;100942.47;;;19.77;93.05
43824;BME280;29470;53.550;9.926;2022-08-19T21:36:12;100946.00;;;19.78;93.81
43824;BME280;29470;53.550;9.926;2022-08-19T21:41:15;100946.09;;;19.81;93.90
43824;BME280;29470;53.550;9.926;2022-08-19T21:46:18;100946.09;;;19.81;94.08
43824;BME280;29470;53.550;9.926;2022-08-19T21:51:25;100943.47;;;19.81;94.12
43824;BME280;29470;53.550;9.926;2022-08-19T21:56:28;100932.06;;;19.80;94.36
43824;BME280;29470;53.550;9.926;2022-08-19T22:01:31;100945.16;;;19.79;93.98
43824;BME280;29470;53.550;9.926;2022-08-19T22:06:36;100940.69;;;19.76;94.10
43824;BME280;29470;53.550;9.926;2022-08-19T22:11:38;100943.91;;;19.69;93.93
43824;BME280;29470;53.550;9.926;2022-08-19T22:16:41;100949.78;;;19.62;94.17
43824;BME280;29470;53.550;9.926;2022-08-19T22:21:47;100946.41;;;19.64;94.11
43824;BME280;29470;53.550;9.926;2022-08-19T22:26:50;100946.44;;;19.66;95.11
43824;BME280;29470;53.550;9.926;2022-08-19T22:31:53;100959.56;;;19.66;95.72
43824;BME280;29470;53.550;9.926;2022-08-19T22:37:00;100961.41;;;19.68;94.74
43824;BME280;29470;53.550;9.926;2022-08-19T22:42:03;100969.28;;;19.68;93.87
43824;BME280;29470;53.550;9.926;2022-08-19T22:47:06;100968.03;;;19.83;94.74
43824;BME280;29470;53.550;9.926;2022-08-19T22:52:12;100959.94;;;20.01;94.40
43824;BME280;29470;53.550;9.926;2022-08-19T22:57:19;100959.41;;;20.11;94.19
43824;BME280;29470;53.550;9.926;2022-08-19T23:02:25;100952.53;;;20.15;94.23
43824;BME280;29470;53.550;9.926;2022-08-19T23:07:29;100960.41;;;20.15;93.95
43824;BME280;29470;53.550;9.926;2022-08-19T23:12:34;100948.53;;;20.26;93.34
43824;BME280;29470;53.550;9.926;2022-08-19T23:17:38;100955.66;;;20.30;92.84
43824;BME280;29470;53.550;9.926;2022-08-19T23:22:45;100952.03;;;20.27;92.03
43824;BME280;29470;53.550;9.926;2022-08-19T23:27:48;100957.09;;;20.21;91.72
43824;BME280;29470;53.550;9.926;2022-08-19T23:33:13;100958.72;;;20.17;90.82
43824;BME280;29470;53.550;9.926;2022-08-19T23:38:21;100946.47;;;20.17;91.15
43824;BME280;29470;53.550;9.926;2022-08-19T23:43:24;100942.81;;;20.12;91.77
43824;BME280;29470;53.550;9.926;2022-08-19T23:48:35;100945.22;;;20.06;91.08
43824;BME280;29470;53.550;9.926;2022-08-19T23:53:40;100936.19;;;19.98;89.81
43824;BME280;29470;53.550;9.926;2022-08-19T23:58:43;100932.59;;;19.94;88.93
